Time;durP1;ratioP1;P1;durP2;ratioP2;P2;SDS_P1;SDS_P2;PMS_P1;PMS_P2;Temp;Humidity;BMP_temperature;BMP_pressure;BME280_temperature;BME280_humidity;BME280_pressure;Samples;Min_cycle;Max_cycle;Signal;HPM_P1;HPM_P2
2022/05/13 00:00:07;;;;;;;3.58;3.05;;;19.20;99.90;;;;;;6068248;23;20006;-84
2022/05/13 00:02:33;;;;;;;5.88;3.03;;;19.10;99.90;;;;;;6094036;23;20082;-84
2022/05/13 00:05:01;;;;;;;8.27;3.33;;;19.10;99.90;;;;;;6068276;23;20447;-84
2022/05/13 00:07:26;;;;;;;4.60;3.05;;;19.10;99.90;;;;;;6093740;23;20048;-83
2022/05/13 00:10:00;;;;;;;5.28;3.20;;;19.10;99.90;;;;;;6068368;23;20003;-84
2022/05/13 00:12:29;;;;;;;3.33;2.80;;;19.10;99.90;;;;;;6068379;23;20477;-84
2022/05/13 00:14:55;;;;;;;6.88;2.78;;;19.10;99.90;;;;;;6068300;23;20009;-83
2022/05/13 00:17:22;;;;;;;3.28;2.80;;;19.10;99.90;;;;;;6069125;23;20087;-83
2022/05/13 00:19:48;;;;;;;3.88;3.10;;;19.10;99.90;;;;;;6093729;23;20361;-83
2022/05/13 00:22:15;;;;;;;3.42;3.10;;;19.10;99.90;;;;;;6093818;23;19998;-84
2022/05/13 00:24:41;;;;;;;4.45;3.10;;;19.10;99.90;;;;;;6068277;23;20018;-84
2022/05/13 00:27:07;;;;;;;4.43;3.40;;;19.10;99.90;;;;;;6068493;23;20011;-83
2022/05/13 00:29:34;;;;;;;5.05;2.95;;;19.10;99.90;;;;;;6068486;23;20003;-83
2022/05/13 00:32:00;;;;;;;5.47;3.30;;;19.10;99.90;;;;;;6068248;23;20009;-83
2022/05/13 00:34:27;;;;;;;3.80;2.90;;;19.10;99.90;;;;;;6068277;23;20450;-84
2022/05/13 00:36:52;;;;;;;4.50;3.05;;;19.10;99.90;;;;;;6068080;23;20081;-84
2022/05/13 00:39:19;;;;;;;4.53;2.92;;;19.10;99.90;;;;;;6093767;23;20470;-84
2022/05/13 00:41:46;;;;;;;4.97;2.90;;;19.00;99.90;;;;;;6068198;23;20035;-84
2022/05/13 00:44:12;;;;;;;5.57;3.03;;;19.00;99.90;;;;;;6068273;23;20010;-83
2022/05/13 00:46:38;;;;;;;4.18;3.05;;;19.00;99.90;;;;;;6093937;23;19998;-83
2022/05/13 00:49:08;;;;;;;6.57;3.15;;;19.00;99.90;;;;;;6068015;23;20061;-83
2022/05/13 00:51:47;;;;;;;5.00;2.90;;;19.00;99.90;;;;;;6092942;23;20057;-83
2022/05/13 00:54:15;;;;;;;3.67;2.80;;;19.00;99.90;;;;;;6093625;23;20005;-83
2022/05/13 00:56:47;;;;;;;4.07;3.15;;;19.00;99.90;;;;;;6067710;23;20049;-83
2022/05/13 00:59:16;;;;;;;3.97;2.90;;;19.00;99.90;;;;;;6068154;23;20010;-84
2022/05/13 01:01:42;;;;;;;7.65;3.45;;;19.00;99.90;;;;;;6093585;23;20335;-83
2022/05/13 01:04:12;;;;;;;6.97;3.55;;;19.00;99.90;;;;;;6068059;23;20010;-83
2022/05/13 01:06:41;;;;;;;7.28;3.20;;;19.00;99.90;;;;;;6068052;23;20007;-83
2022/05/13 01:09:07;;;;;;;5.57;3.20;;;19.00;99.90;;;;;;6067984;23;20007;-83
2022/05/13 01:11:36;;;;;;;4.43;3.03;;;19.00;99.90;;;;;;6068174;23;20006;-84
2022/05/13 01:14:07;;;;;;;4.47;2.97;;;19.00;99.90;;;;;;6093622;23;19999;-84
2022/05/13 01:18:05;;;;;;;5.80;3.35;;;19.00;99.90;;;;;;6068048;23;20055;-84
2022/05/13 01:19:18;;;;;;;3.65;3.13;;;19.00;99.90;;;;;;6093703;23;20078;-84
2022/05/13 01:21:48;;;;;;;6.78;3.58;;;18.90;99.90;;;;;;6068391;23;20136;-84
2022/05/13 01:24:16;;;;;;;5.05;3.15;;;18.90;99.90;;;;;;6068504;23;20010;-84
2022/05/13 01:26:42;;;;;;;6.03;3.50;;;18.90;99.90;;;;;;6068447;23;20006;-84
2022/05/13 01:29:07;;;;;;;4.32;3.25;;;18.90;99.90;;;;;;6094016;23;20381;-84
2022/05/13 01:31:36;;;;;;;7.55;3.30;;;18.90;99.90;;;;;;6068597;23;20006;-83
2022/05/13 01:34:08;;;;;;;5.75;3.35;;;18.90;99.90;;;;;;6094271;23;20009;-83
2022/05/13 01:36:34;;;;;;;6.85;3.50;;;18.90;99.90;;;;;;6093849;23;20049;-83
2022/05/13 01:39:00;;;;;;;5.47;3.25;;;18.90;99.90;;;;;;6094227;23;20077;-82
2022/05/13 01:41:27;;;;;;;5.38;3.45;;;18.90;99.90;;;;;;6067799;23;20079;-83
2022/05/13 01:43:53;;;;;;;5.72;3.00;;;18.90;99.90;;;;;;6068271;23;20110;-83
2022/05/13 01:46:20;;;;;;;4.35;3.30;;;18.90;99.90;;;;;;6094103;23;20045;-83
2022/05/13 01:48:47;;;;;;;4.68;3.20;;;18.90;99.90;;;;;;6068197;23;20003;-83
2022/05/13 01:51:13;;;;;;;5.03;3.55;;;18.90;99.90;;;;;;6093765;23;20407;-82
2022/05/13 01:53:40;;;;;;;5.40;3.78;;;18.90;99.90;;;;;;6093670;23;19998;-82
2022/05/13 01:56:05;;;;;;;5.32;3.30;;;18.90;99.90;;;;;;6063071;23;20023;-82
2022/05/13 01:58:31;;;;;;;4.45;3.42;;;18.90;99.90;;;;;;6063456;23;20007;-82
2022/05/13 02:00:58;;;;;;;5.70;3.25;;;18.90;99.90;;;;;;6064731;23;20070;-81
2022/05/13 02:03:44;;;;;;;5.00;2.92;;;18.80;99.90;;;;;;6064559;23;20035;-81
2022/05/13 02:06:23;;;;;;;5.07;3.25;;;18.80;99.90;;;;;;6064926;23;20330;-81
2022/05/13 02:08:51;;;;;;;3.80;3.13;;;18.90;99.90;;;;;;6064969;23;20311;-82
2022/05/13 02:11:18;;;;;;;6.90;3.33;;;18.80;99.90;;;;;;6063174;23;20011;-81
2022/05/13 02:13:44;;;;;;;3.63;3.20;;;18.80;99.90;;;;;;6063159;23;20093;-81
2022/05/13 02:16:11;;;;;;;6.97;3.05;;;18.80;99.90;;;;;;6064185;23;20364;-82
2022/05/13 02:18:36;;;;;;;4.30;3.63;;;18.80;99.90;;;;;;6064711;23;20011;-80
2022/05/13 02:21:03;;;;;;;4.85;2.75;;;18.80;99.90;;;;;;6064400;23;20440;-81
2022/05/13 02:23:29;;;;;;;6.10;3.33;;;18.80;99.90;;;;;;6062881;23;20034;-82
2022/05/13 02:26:00;;;;;;;5.68;3.53;;;18.80;99.90;;;;;;6064421;23;20003;-81
2022/05/13 02:28:27;;;;;;;4.40;3.00;;;18.80;99.90;;;;;;6062914;23;20014;-81
2022/05/13 02:30:53;;;;;;;3.35;2.90;;;18.80;99.90;;;;;;6062859;23;20435;-81
2022/05/13 02:33:18;;;;;;;3.88;2.90;;;18.80;99.90;;;;;;6062853;23;20026;-81
2022/05/13 02:35:44;;;;;;;5.15;3.35;;;18.80;99.90;;;;;;6062872;23;20034;-82
2022/05/13 02:38:13;;;;;;;4.57;3.08;;;18.80;99.90;;;;;;6064299;23;20006;-82
2022/05/13 02:43:23;;;;;;;5.80;3.20;;;18.80;99.90;;;;;;6064829;23;20014;-81
2022/05/13 02:45:49;;;;;;;4.55;3.30;;;18.80;99.90;;;;;;6062630;23;20334;-81
2022/05/13 02:48:15;;;;;;;5.18;2.92;;;18.80;99.90;;;;;;6062718;23;20026;-82
2022/05/13 02:50:40;;;;;;;5.38;3.05;;;18.80;99.90;;;;;;6062680;23;20007;-81
2022/05/13 02:53:07;;;;;;;5.50;3.10;;;18.80;99.90;;;;;;6064205;23;20007;-82
2022/05/13 02:55:32;;;;;;;4.32;3.17;;;18.70;99.90;;;;;;6066851;23;20026;-82
2022/05/13 02:57:58;;;;;;;5.35;2.90;;;18.70;99.90;;;;;;6093280;23;20052;-82
2022/05/13 03:00:24;;;;;;;3.42;2.80;;;18.70;99.90;;;;;;6092984;23;20253;-81
2022/05/13 03:02:49;;;;;;;5.50;3.13;;;18.70;99.90;;;;;;6067368;23;20307;-82
2022/05/13 03:05:15;;;;;;;4.68;3.15;;;18.70;99.90;;;;;;6067378;23;20041;-81
2022/05/13 03:07:41;;;;;;;5.22;3.17;;;18.70;99.90;;;;;;6067263;23;20056;-81
2022/05/13 03:10:08;;;;;;;4.20;3.00;;;18.70;99.90;;;;;;6092840;23;20010;-81
2022/05/13 03:12:35;;;;;;;5.68;3.15;;;18.70;99.90;;;;;;6093433;23;20477;-81
2022/05/13 03:15:01;;;;;;;4.70;3.45;;;18.70;99.90;;;;;;6092282;23;20116;-81
2022/05/13 03:17:28;;;;;;;4.25;2.92;;;18.70;99.90;;;;;;6067259;23;20030;-81
2022/05/13 03:19:54;;;;;;;5.57;3.03;;;18.70;99.90;;;;;;6067195;23;20018;-81
2022/05/13 03:22:19;;;;;;;4.05;3.33;;;18.70;99.90;;;;;;6092772;23;20117;-81
2022/05/13 03:24:45;;;;;;;4.05;2.92;;;18.70;99.90;;;;;;6093422;23;20006;-81
2022/05/13 03:27:11;;;;;;;3.65;2.78;;;18.60;99.90;;;;;;6067077;23;20007;-81
2022/05/13 03:29:36;;;;;;;4.72;3.17;;;18.70;99.90;;;;;;6092702;23;20006;-81
2022/05/13 03:32:05;;;;;;;3.20;2.58;;;18.70;99.90;;;;;;6067181;23;20006;-81
2022/05/13 03:34:31;;;;;;;4.25;2.88;;;18.60;99.90;;;;;;6067111;23;20060;-81
2022/05/13 03:36:57;;;;;;;7.55;2.90;;;18.70;99.90;;;;;;6067216;23;20010;-81
2022/05/13 03:39:23;;;;;;;3.75;2.78;;;18.60;99.90;;;;;;6067096;23;20003;-81
2022/05/13 03:41:48;;;;;;;4.63;2.88;;;18.60;99.90;;;;;;6067128;23;20007;-81
2022/05/13 03:44:14;;;;;;;3.40;2.95;;;18.60;99.90;;;;;;6092635;23;20010;-81
2022/05/13 03:46:40;;;;;;;4.63;2.97;;;18.60;99.90;;;;;;6092441;23;20441;-81
2022/05/13 03:49:06;;;;;;;4.35;3.05;;;18.60;99.90;;;;;;6092578;23;20006;-80
2022/05/13 03:51:32;;;;;;;4.20;2.95;;;18.60;99.90;;;;;;6067053;23;20080;-81
2022/05/13 03:53:58;;;;;;;3.55;2.85;;;18.60;99.90;;;;;;6066947;23;20457;-80
2022/05/13 03:56:24;;;;;;;3.95;2.92;;;18.60;99.90;;;;;;6066627;23;20019;-81
2022/05/13 03:58:50;;;;;;;4.32;2.95;;;18.60;99.90;;;;;;6092819;23;20007;-81
2022/05/13 04:01:16;;;;;;;8.00;2.85;;;18.60;99.90;;;;;;6066863;23;20014;-81
2022/05/13 04:03:42;;;;;;;4.07;2.90;;;18.60;99.90;;;;;;6092753;23;20045;-81
2022/05/13 04:08:57;;;;;;;4.32;2.95;;;18.60;99.90;;;;;;6092812;23;20013;-81
2022/05/13 04:11:24;;;;;;;5.28;3.05;;;18.60;99.90;;;;;;6092747;23;20007;-81
2022/05/13 04:16:35;;;;;;;4.30;2.70;;;18.50;99.90;;;;;;6092798;23;20034;-81
2022/05/13 04:19:03;;;;;;;5.15;3.03;;;18.50;99.90;;;;;;6066802;23;20014;-81
2022/05/13 04:21:32;;;;;;;4.07;2.95;;;18.50;99.90;;;;;;6066518;23;20013;-81
2022/05/13 04:24:05;;;;;;;4.40;2.88;;;18.50;99.90;;;;;;6092268;23;20010;-81
2022/05/13 04:26:32;;;;;;;4.07;3.00;;;18.50;99.90;;;;;;6093615;23;20006;-81
2022/05/13 04:28:59;;;;;;;5.70;3.00;;;18.50;99.90;;;;;;6068099;23;20026;-81
2022/05/13 04:31:28;;;;;;;5.05;3.15;;;18.50;99.90;;;;;;6067835;23;20339;-80
2022/05/13 04:33:55;;;;;;;3.42;2.90;;;18.50;99.90;;;;;;6068289;23;19998;-80
2022/05/13 04:36:23;;;;;;;4.22;2.65;;;18.50;99.90;;;;;;6067973;23;20007;-81
2022/05/13 04:38:49;;;;;;;3.80;2.97;;;18.50;99.90;;;;;;6068063;23;20443;-81
2022/05/13 04:44:01;;;;;;;5.38;3.28;;;18.40;99.90;;;;;;6093981;23;20465;-81
2022/05/13 04:46:27;;;;;;;5.47;2.88;;;18.50;99.90;;;;;;6067861;23;20323;-81
2022/05/13 04:48:53;;;;;;;3.40;2.58;;;18.50;99.90;;;;;;6067980;23;20005;-80
2022/05/13 04:51:20;;;;;;;5.28;2.90;;;18.50;99.90;;;;;;6093810;23;20002;-80
2022/05/13 04:53:48;;;;;;;3.70;2.80;;;18.50;99.90;;;;;;6093532;23;20056;-80
2022/05/13 04:56:14;;;;;;;4.03;2.72;;;18.40;99.90;;;;;;6067769;23;20026;-80
2022/05/13 04:58:41;;;;;;;3.63;2.88;;;18.50;99.90;;;;;;6093497;23;20003;-80
2022/05/13 05:01:08;;;;;;;3.65;2.95;;;18.40;99.90;;;;;;6093503;23;20017;-81
2022/05/13 05:03:35;;;;;;;5.68;3.10;;;18.50;99.90;;;;;;6068030;23;20010;-80
2022/05/13 05:06:02;;;;;;;3.20;2.70;;;18.50;99.90;;;;;;6093486;23;20438;-80
2022/05/13 05:08:28;;;;;;;2.70;2.40;;;18.40;99.90;;;;;;6068164;23;20339;-81
2022/05/13 05:10:55;;;;;;;3.92;2.85;;;18.50;99.90;;;;;;6068056;23;20013;-81
2022/05/13 05:13:29;;;;;;;5.10;2.55;;;18.40;99.90;;;;;;6093629;23;19998;-80
2022/05/13 05:15:55;;;;;;;4.32;2.92;;;18.40;99.90;;;;;;6067810;23;20041;-79
2022/05/13 05:18:22;;;;;;;3.85;3.08;;;18.50;99.90;;;;;;6093405;23;20334;-80
2022/05/13 05:20:49;;;;;;;4.65;2.85;;;18.50;99.90;;;;;;6067875;23;20006;-80
2022/05/13 05:23:22;;;;;;;7.45;3.33;;;18.40;99.90;;;;;;6067888;23;20014;-80
2022/05/13 05:25:48;;;;;;;3.10;2.50;;;18.40;99.90;;;;;;6067740;23;20010;-80
2022/05/13 05:28:14;;;;;;;3.63;2.53;;;18.40;99.90;;;;;;6093392;23;20125;-80
2022/05/13 05:30:41;;;;;;;3.92;2.97;;;18.40;99.90;;;;;;6067752;23;20438;-80
2022/05/13 05:33:08;;;;;;;3.70;2.58;;;18.40;99.90;;;;;;6067733;23;20007;-80
2022/05/13 05:35:34;;;;;;;5.65;2.90;;;18.40;99.90;;;;;;6094054;23;20366;-80
2022/05/13 05:38:00;;;;;;;3.28;2.60;;;18.40;99.90;;;;;;6093285;23;19998;-80
2022/05/13 05:40:26;;;;;;;3.40;2.63;;;18.40;99.90;;;;;;6093380;23;20472;-80
2022/05/13 05:42:51;;;;;;;6.18;2.70;;;18.40;99.90;;;;;;6093355;23;20033;-80
2022/05/13 05:45:20;;;;;;;5.00;2.65;;;18.40;99.90;;;;;;6067901;23;20002;-79
2022/05/13 05:47:46;;;;;;;3.35;2.72;;;18.40;99.90;;;;;;6067638;23;20010;-80
2022/05/13 05:50:15;;;;;;;3.90;2.33;;;18.40;99.90;;;;;;6093348;23;20355;-80
2022/05/13 05:52:41;;;;;;;4.53;2.70;;;18.40;99.90;;;;;;6093307;23;20362;-80
2022/05/13 05:58:00;;;;;;;5.97;3.00;;;18.40;99.90;;;;;;6093747;23;20034;-80
2022/05/13 06:00:26;;;;;;;4.47;2.70;;;18.40;99.90;;;;;;6067718;23;20018;-80
2022/05/13 06:02:52;;;;;;;4.18;2.53;;;18.40;99.90;;;;;;6093611;23;20430;-80
2022/05/13 06:05:18;;;;;;;3.90;2.88;;;18.40;99.90;;;;;;6093312;23;20078;-80
2022/05/13 06:07:45;;;;;;;4.38;2.80;;;18.40;99.90;;;;;;6093179;23;20030;-80
2022/05/13 06:10:12;;;;;;;3.13;2.53;;;18.40;99.90;;;;;;6067712;23;20006;-79
2022/05/13 06:12:37;;;;;;;3.35;2.42;;;18.40;99.90;;;;;;6093261;23;20002;-80
2022/05/13 06:15:03;;;;;;;4.07;2.70;;;18.40;99.90;;;;;;6067727;23;20510;-80
2022/05/13 06:17:29;;;;;;;3.38;2.35;;;18.40;99.90;;;;;;6067716;23;20010;-80
2022/05/13 06:19:55;;;;;;;4.03;2.63;;;18.40;99.90;;;;;;6067707;23;20013;-80
2022/05/13 06:22:21;;;;;;;4.50;2.53;;;18.40;99.90;;;;;;6067621;23;20012;-80
2022/05/13 06:24:47;;;;;;;3.28;2.70;;;18.40;99.90;;;;;;6067632;23;20037;-80
2022/05/13 06:27:13;;;;;;;3.20;2.50;;;18.40;99.90;;;;;;6093309;23;19999;-80
2022/05/13 06:29:38;;;;;;;4.97;2.60;;;18.40;99.90;;;;;;6093215;23;19998;-80
2022/05/13 06:32:04;;;;;;;3.83;2.50;;;18.40;99.90;;;;;;6067585;23;20347;-80
2022/05/13 06:34:30;;;;;;;5.05;2.40;;;18.40;99.90;;;;;;6093035;23;19999;-80
2022/05/13 06:36:56;;;;;;;3.75;2.50;;;18.40;99.90;;;;;;6093132;23;20052;-80
2022/05/13 06:39:22;;;;;;;4.18;2.50;;;18.40;99.90;;;;;;6093079;23;20156;-80
2022/05/13 06:41:47;;;;;;;3.78;2.72;;;18.40;99.90;;;;;;6067622;23;20081;-80
2022/05/13 06:44:15;;;;;;;2.95;2.40;;;18.40;99.90;;;;;;6093199;23;20496;-80
2022/05/13 06:46:41;;;;;;;4.88;2.80;;;18.40;99.90;;;;;;6092935;23;20006;-80
2022/05/13 06:49:08;;;;;;;4.55;2.60;;;18.40;99.90;;;;;;6067393;23;20017;-80
2022/05/13 06:51:35;;;;;;;6.20;2.28;;;18.40;99.90;;;;;;6067490;23;20346;-80
2022/05/13 06:54:04;;;;;;;3.40;2.70;;;18.40;99.90;;;;;;6067465;23;20002;-80
2022/05/13 06:56:34;;;;;;;4.78;2.75;;;18.40;99.90;;;;;;6092671;23;20073;-80
2022/05/13 06:59:00;;;;;;;3.08;2.17;;;18.40;99.90;;;;;;6093388;23;20029;-80
2022/05/13 07:01:26;;;;;;;3.28;2.35;;;18.40;99.90;;;;;;6067428;23;20006;-80
2022/05/13 07:03:52;;;;;;;6.20;2.22;;;18.40;99.90;;;;;;6093259;23;20002;-80
2022/05/13 07:06:17;;;;;;;7.38;2.50;;;18.40;99.90;;;;;;6092862;23;20013;-80
2022/05/13 07:08:43;;;;;;;4.47;2.53;;;18.40;99.90;;;;;;6067475;23;20003;-80
2022/05/13 07:11:09;;;;;;;4.53;2.30;;;18.40;99.90;;;;;;6092867;23;20006;-80
2022/05/13 07:13:34;;;;;;;4.30;2.25;;;18.40;99.90;;;;;;6092872;23;20009;-80
2022/05/13 07:16:01;;;;;;;4.90;2.60;;;18.40;99.90;;;;;;6092858;23;20002;-80
2022/05/13 07:18:27;;;;;;;4.93;2.45;;;18.40;99.90;;;;;;6092746;23;19998;-80
2022/05/13 07:20:53;;;;;;;3.63;2.40;;;18.40;99.90;;;;;;6067214;23;20010;-80
2022/05/13 07:23:19;;;;;;;3.63;2.30;;;18.40;99.90;;;;;;6067229;23;20003;-80
2022/05/13 07:25:45;;;;;;;2.63;2.33;;;18.40;99.90;;;;;;6092797;23;20029;-80
2022/05/13 07:28:11;;;;;;;2.78;2.28;;;18.40;99.90;;;;;;6067397;23;19999;-80
2022/05/13 07:30:37;;;;;;;6.82;2.20;;;18.40;99.90;;;;;;6067237;23;20017;-80
2022/05/13 07:33:03;;;;;;;3.78;2.22;;;18.40;99.90;;;;;;6092784;23;20411;-80
2022/05/13 07:35:29;;;;;;;5.18;2.53;;;18.40;99.90;;;;;;6067205;23;20013;-80
2022/05/13 07:37:55;;;;;;;4.50;2.20;;;18.40;99.90;;;;;;6067343;23;20085;-81
2022/05/13 07:43:05;;;;;;;2.78;1.95;;;18.40;99.90;;;;;;6093183;23;20014;-80
2022/05/13 07:45:32;;;;;;;4.35;2.40;;;18.40;99.90;;;;;;6092669;23;20002;-80
2022/05/13 07:47:57;;;;;;;3.47;2.20;;;18.40;99.90;;;;;;6067094;23;20324;-80
2022/05/13 07:50:23;;;;;;;5.18;2.35;;;18.40;99.90;;;;;;6092628;23;20005;-81
2022/05/13 07:52:51;;;;;;;3.35;2.00;;;18.40;99.90;;;;;;6067211;23;20026;-80
2022/05/13 07:55:18;;;;;;;3.65;2.20;;;18.40;99.90;;;;;;6067053;23;20002;-80
2022/05/13 07:57:44;;;;;;;2.88;2.20;;;18.40;99.90;;;;;;6066981;23;20018;-80
2022/05/13 08:00:26;;;;;;;3.60;2.10;;;18.50;99.90;;;;;;6093198;23;20002;-81
2022/05/13 08:03:07;;;;;;;7.03;2.10;;;18.50;99.90;;;;;;6068517;23;20350;-81
2022/05/13 08:05:37;;;;;;;6.15;2.60;;;18.60;99.90;;;;;;6068444;23;20008;-81
2022/05/13 08:08:08;;;;;;;5.82;2.20;;;18.60;99.90;;;;;;6068356;23;20006;-81
2022/05/13 08:10:35;;;;;;;2.67;1.90;;;18.70;99.90;;;;;;6068568;23;20003;-81
2022/05/13 08:13:00;;;;;;;6.63;2.40;;;18.70;99.90;;;;;;6094102;23;20001;-82
2022/05/13 08:15:27;;;;;;;3.30;2.00;;;18.70;99.90;;;;;;6094307;23;20006;-81
2022/05/13 08:17:52;;;;;;;3.38;1.92;;;18.70;99.90;;;;;;6068848;23;20014;-82
2022/05/13 08:20:19;;;;;;;5.50;2.17;;;18.70;99.90;;;;;;6068194;23;20007;-82
2022/05/13 08:22:45;;;;;;;3.92;2.20;;;18.70;99.90;;;;;;6068195;23;20346;-82
2022/05/13 08:25:11;;;;;;;4.97;1.83;;;18.80;99.90;;;;;;6068226;23;20018;-82
2022/05/13 08:27:37;;;;;;;3.88;1.80;;;18.80;99.90;;;;;;6068248;23;20393;-82
2022/05/13 08:30:05;;;;;;;3.15;1.80;;;18.70;99.90;;;;;;6093815;23;19995;-82
2022/05/13 08:32:31;;;;;;;4.00;2.10;;;18.70;99.90;;;;;;6093569;23;20330;-82
2022/05/13 08:34:57;;;;;;;4.60;1.88;;;18.70;99.90;;;;;;6068241;23;20430;-82
2022/05/13 08:37:22;;;;;;;4.65;2.20;;;18.70;99.90;;;;;;6068132;23;20006;-82
2022/05/13 08:39:48;;;;;;;3.08;1.80;;;18.70;99.90;;;;;;6068029;23;20014;-82
2022/05/13 08:42:37;;;;;;;10.90;2.30;;;18.70;99.90;;;;;;6068102;23;20010;-81
2022/05/13 08:45:07;;;;;;;11.52;2.60;;;18.70;99.90;;;;;;6094004;23;20056;-81
2022/05/13 08:47:54;;;;;;;8.05;2.30;;;18.60;99.90;;;;;;6093979;23;20493;-82
2022/05/13 08:51:01;;;;;;;12.52;2.50;;;18.60;99.90;;;;;;6068175;23;20011;-82
2022/05/13 08:53:52;;;;;;;8.88;2.05;;;18.60;99.90;;;;;;6093351;23;20006;-82
2022/05/13 08:56:26;;;;;;;5.53;2.05;;;18.70;99.90;;;;;;6067971;23;20361;-82
2022/05/13 08:59:21;;;;;;;10.70;3.08;;;18.70;99.90;;;;;;6094044;23;20007;-82
2022/05/13 09:01:54;;;;;;;5.85;2.03;;;18.70;99.90;;;;;;6093708;23;20085;-82
2022/05/13 09:04:34;;;;;;;4.87;2.10;;;18.70;99.90;;;;;;6068171;23;20007;-81
2022/05/13 09:07:03;;;;;;;5.32;2.10;;;18.70;99.90;;;;;;6093892;23;20065;-82
2022/05/13 09:09:28;;;;;;;5.78;1.77;;;18.70;99.90;;;;;;6068054;23;20006;-82
2022/05/13 09:12:07;;;;;;;10.00;2.35;;;18.70;99.90;;;;;;6093344;23;20052;-82
2022/05/13 09:14:57;;;;;;;7.03;2.08;;;18.80;99.90;;;;;;6068028;23;20385;-82
2022/05/13 09:17:34;;;;;;;7.65;2.20;;;18.80;99.90;;;;;;6068008;23;20085;-82
2022/05/13 09:20:02;;;;;;;6.32;2.10;;;18.80;99.90;;;;;;6093537;23;20011;-82
2022/05/13 09:22:58;;;;;;;4.63;1.65;;;18.90;99.90;;;;;;6067965;23;20063;-82
2022/05/13 09:25:51;;;;;;;6.60;2.17;;;18.90;99.90;;;;;;6094683;23;20010;-82
2022/05/13 09:28:18;;;;;;;3.95;1.70;;;18.90;99.90;;;;;;6072911;23;20025;-82
2022/05/13 09:30:53;;;;;;;4.65;1.77;;;19.00;99.90;;;;;;6093510;23;20013;-82
2022/05/13 09:33:20;;;;;;;7.70;2.28;;;19.00;99.90;;;;;;6068015;23;20006;-82
2022/05/13 09:35:48;;;;;;;6.18;1.73;;;19.10;99.90;;;;;;6093483;23;20331;-83
2022/05/13 09:38:18;;;;;;;4.43;1.77;;;19.10;99.90;;;;;;6093488;23;20065;-82
2022/05/13 09:40:59;;;;;;;6.68;1.90;;;19.20;99.90;;;;;;6093602;23;20057;-83
2022/05/13 09:43:33;;;;;;;4.72;1.80;;;19.20;99.90;;;;;;6093798;23;20006;-83
2022/05/13 09:46:27;;;;;;;6.47;2.17;;;19.30;99.90;;;;;;6068879;23;20081;-82
2022/05/13 09:49:03;;;;;;;6.85;2.20;;;19.40;99.90;;;;;;6093079;23;20007;-82
2022/05/13 09:51:36;;;;;;;13.43;1.92;;;19.40;99.90;;;;;;6093868;23;20026;-82
2022/05/13 09:54:21;;;;;;;11.82;2.17;;;19.70;99.90;;;;;;6093765;23;20005;-82
2022/05/13 09:56:53;;;;;;;8.30;2.05;;;20.10;99.90;;;;;;6093057;23;20370;-83
2022/05/13 09:59:25;;;;;;;9.38;1.70;;;20.10;99.90;;;;;;6067796;23;20092;-82
2022/05/13 10:01:52;;;;;;;13.27;2.10;;;20.00;99.90;;;;;;6067579;23;20489;-82
2022/05/13 10:04:24;;;;;;;8.25;1.90;;;19.90;99.90;;;;;;6093307;23;20456;-82
2022/05/13 10:07:01;;;;;;;12.20;1.92;;;19.90;99.90;;;;;;6093299;23;20029;-82
2022/05/13 10:15:35;;;;;;;6.30;1.85;;;19.60;99.90;;;;;;6093758;23;20496;-82
2022/05/13 10:18:31;;;;;;;10.40;1.80;;;19.60;99.90;;;;;;6093769;23;20040;-82
2022/05/13 10:21:05;;;;;;;8.80;1.70;;;19.50;99.90;;;;;;6096510;23;20449;-83
2022/05/13 10:23:43;;;;;;;5.60;1.48;;;19.50;99.90;;;;;;6067554;23;20007;-82
2022/05/13 10:26:14;;;;;;;7.25;1.80;;;19.50;99.90;;;;;;6067671;23;20010;-83
2022/05/13 10:28:52;;;;;;;6.10;1.75;;;19.50;99.90;;;;;;6067807;23;20006;-81
2022/05/13 10:31:25;;;;;;;4.93;1.90;;;19.40;99.90;;;;;;6093356;23;20369;-81
2022/05/13 10:34:02;;;;;;;6.78;1.48;;;19.40;99.90;;;;;;6093358;23;20005;-81
2022/05/13 10:36:31;;;;;;;8.45;1.80;;;19.40;99.90;;;;;;6067748;23;20431;-81
2022/05/13 10:39:22;;;;;;;8.68;1.80;;;19.40;99.90;;;;;;6093573;23;20113;-81
2022/05/13 10:42:16;;;;;;;4.70;1.83;;;19.40;99.90;;;;;;6067818;23;20350;-81
2022/05/13 10:45:07;;;;;;;7.53;1.80;;;19.30;99.90;;;;;;6106432;23;20338;-82
2022/05/13 10:47:54;;;;;;;5.28;1.42;;;19.30;99.90;;;;;;6071027;23;20018;-81
2022/05/13 10:50:26;;;;;;;5.05;1.40;;;19.30;99.90;;;;;;6093476;23;20003;-81
2022/05/13 10:53:01;;;;;;;4.63;1.60;;;19.30;99.90;;;;;;6093091;23;20056;-81
2022/05/13 10:55:58;;;;;;;6.40;1.67;;;19.20;99.90;;;;;;6067229;23;20006;-81
2022/05/13 10:58:41;;;;;;;5.97;1.85;;;19.20;99.90;;;;;;6067511;23;20430;-82
2022/05/13 11:01:26;;;;;;;5.03;1.65;;;19.20;99.90;;;;;;6067596;23;20427;-81
2022/05/13 11:04:18;;;;;;;5.55;1.38;;;19.20;99.90;;;;;;6093321;23;19999;-81
2022/05/13 11:06:54;;;;;;;6.72;1.77;;;19.20;99.90;;;;;;6079567;23;20010;-82
2022/05/13 11:09:57;;;;;;;4.57;1.63;;;19.20;99.90;;;;;;6067429;23;20061;-82
2022/05/13 11:12:52;;;;;;;5.35;1.50;;;19.20;99.90;;;;;;6093313;23;20002;-82
2022/05/13 11:15:47;;;;;;;8.10;2.10;;;19.30;99.90;;;;;;6067396;23;20013;-81
2022/05/13 11:18:42;;;;;;;5.30;1.85;;;19.30;99.90;;;;;;6067371;23;20349;-82
2022/05/13 11:21:37;;;;;;;6.28;1.95;;;19.30;99.90;;;;;;6067504;23;20014;-82
2022/05/13 11:27:35;;;;;;;6.15;1.50;;;19.30;99.90;;;;;;6093097;23;20059;-82
2022/05/13 11:30:13;;;;;;;7.93;1.75;;;19.30;99.90;;;;;;6095372;23;20042;-82
2022/05/13 11:32:53;;;;;;;3.25;1.55;;;19.30;99.90;;;;;;6067664;23;19999;-80
2022/05/13 11:35:30;;;;;;;5.03;1.83;;;19.30;99.90;;;;;;6067356;23;20042;-82
2022/05/13 11:38:03;;;;;;;4.13;1.55;;;19.30;99.90;;;;;;6068480;23;20007;-81
2022/05/13 11:40:50;;;;;;;3.40;1.63;;;19.30;99.90;;;;;;6068589;23;20010;-81
2022/05/13 11:43:22;;;;;;;4.18;1.52;;;19.30;99.90;;;;;;6094337;23;20006;-81
2022/05/13 11:45:59;;;;;;;3.95;1.60;;;19.40;99.90;;;;;;6093653;23;20006;-81
2022/05/13 11:48:43;;;;;;;5.97;1.98;;;19.50;99.90;;;;;;6068452;23;19999;-82
2022/05/13 11:51:19;;;;;;;10.32;1.83;;;19.50;99.90;;;;;;6093809;23;20475;-81
2022/05/13 11:53:47;;;;;;;5.85;1.85;;;19.60;99.90;;;;;;6069061;23;19998;-81
2022/05/13 11:56:34;;;;;;;4.13;1.70;;;19.60;99.90;;;;;;6093522;23;20018;-81
2022/05/13 11:59:12;;;;;;;4.45;1.73;;;19.70;99.90;;;;;;6068289;23;20041;-81
2022/05/13 12:01:43;;;;;;;4.25;1.75;;;19.70;99.90;;;;;;6093811;23;20011;-81
2022/05/13 12:04:16;;;;;;;5.72;1.85;;;19.80;99.90;;;;;;6094177;23;20072;-82
2022/05/13 12:06:49;;;;;;;4.97;1.63;;;19.80;99.90;;;;;;6068086;23;20002;-81
2022/05/13 12:09:16;;;;;;;6.60;1.95;;;19.80;99.90;;;;;;6068312;23;20006;-81
2022/05/13 12:12:06;;;;;;;4.65;2.20;;;19.90;99.90;;;;;;6068324;23;20009;-81
2022/05/13 12:14:41;;;;;;;4.40;1.77;;;19.90;99.90;;;;;;6068165;23;20029;-81
2022/05/13 12:17:31;;;;;;;4.72;1.58;;;19.90;99.90;;;;;;6093716;23;20003;-81
2022/05/13 12:20:14;;;;;;;6.72;1.73;;;19.90;99.90;;;;;;6094201;23;20007;-82
2022/05/13 12:23:19;;;;;;;3.35;1.70;;;19.90;99.90;;;;;;6094090;23;20010;-82
2022/05/13 12:25:55;;;;;;;6.28;2.00;;;19.90;99.90;;;;;;6068466;23;20006;-81
2022/05/13 12:28:23;;;;;;;3.38;1.40;;;20.00;99.90;;;;;;6068130;23;20343;-82
2022/05/13 12:30:51;;;;;;;4.88;1.60;;;20.00;99.90;;;;;;6068115;23;20006;-82
2022/05/13 12:33:20;;;;;;;3.65;1.52;;;19.90;99.90;;;;;;6094020;23;19998;-82
2022/05/13 12:39:02;;;;;;;2.80;1.35;;;20.00;99.90;;;;;;6094134;23;20392;-82
2022/05/13 12:41:45;;;;;;;4.22;1.65;;;20.10;99.90;;;;;;6094039;23;20007;-82
2022/05/13 12:44:21;;;;;;;6.00;1.60;;;20.10;99.90;;;;;;6093740;23;20105;-81
2022/05/13 12:46:48;;;;;;;4.35;1.63;;;20.10;99.90;;;;;;6093637;23;20035;-81
2022/05/13 12:49:27;;;;;;;8.57;1.45;;;20.00;99.90;;;;;;6093721;23;19994;-82
2022/05/13 12:52:03;;;;;;;5.60;1.70;;;20.00;99.90;;;;;;6068016;23;20009;-82
2022/05/13 12:54:34;;;;;;;4.28;1.52;;;20.00;99.90;;;;;;6067972;23;20029;-82
2022/05/13 12:57:24;;;;;;;4.97;1.65;;;20.00;99.90;;;;;;6093391;23;20419;-82
2022/05/13 12:59:55;;;;;;;4.47;1.60;;;20.00;99.90;;;;;;6068098;23;20457;-83
2022/05/13 13:02:31;;;;;;;4.85;1.52;;;20.10;99.90;;;;;;6068093;23;20320;-83
2022/05/13 13:05:03;;;;;;;3.80;1.45;;;20.30;99.90;;;;;;6093628;23;20010;-82
2022/05/13 13:07:32;;;;;;;4.00;1.20;;;20.40;99.90;;;;;;6068027;23;20029;-82
2022/05/13 13:09:58;;;;;;;2.97;1.40;;;20.60;99.90;;;;;;6094180;23;20002;-83
2022/05/13 13:12:44;;;;;;;3.00;1.50;;;20.80;99.90;;;;;;6068023;23;20494;-83
2022/05/13 13:15:23;;;;;;;2.88;1.50;;;20.90;99.90;;;;;;6094008;23;19998;-83
2022/05/13 13:17:56;;;;;;;3.10;1.30;;;21.00;99.90;;;;;;6068160;23;20002;-83
2022/05/13 13:20:25;;;;;;;2.45;1.27;;;21.20;99.90;;;;;;6068074;23;20002;-82
2022/05/13 13:22:59;;;;;;;4.20;1.45;;;21.30;99.90;;;;;;6068019;23;20011;-82
2022/05/13 13:25:41;;;;;;;4.40;1.20;;;21.30;99.90;;;;;;6067967;23;20097;-83
2022/05/13 13:28:12;;;;;;;5.28;1.48;;;21.40;99.90;;;;;;6093460;23;20007;-83
2022/05/13 13:30:52;;;;;;;5.95;1.58;;;21.20;99.90;;;;;;6093520;23;20006;-82
2022/05/13 13:33:23;;;;;;;2.95;1.60;;;21.10;99.90;;;;;;6093914;23;20007;-83